Aérodrome :
LOGIN :

S'inscrire | Disclaimer

   EN    FR    IT 

 










Légende :    VFR   VFR Marginal   IFR   IFR Intensif   IFR Très Intensif
Visi : 
Plafond : 
>= 8 km
>= 3000ft
5 à 8 km
1000 à 3000 ft
1500m à 5 km
500 à 1000 ft
800 à 1500m
200 à 500 ft
< 800m
< 200 ft
Symboles :   Orages  Brouillard  Fortes neiges  Fortes précipitations  Vent > 20 kt
SIGMETs :   Divers  Orages  Givrage  Turbulence  Onde Orograph.  Cendres Volcan.







- Altitude de l'aérodrome : 1234 ft
- Code IATA : LUX


ELLX - Luxembourg Findel

DERNIER METAR :
  • 191020Z 28011KT 9999 FEW012 SCT050 05/02 Q1019 NOSIG

METARs EXPIRÉS :
  • 190950Z 28012KT 9999 FEW024 05/02 Q1019 NOSIG
  • 190920Z 28010KT CAVOK 04/02 Q1019 NOSIG
  • 190850Z 28010KT CAVOK 04/01 Q1019 NOSIG
  • 190820Z 28010KT CAVOK 03/01 Q1019 NOSIG
  • 190750Z 27008KT 9999 FEW037 02/01 Q1018 NOSIG

TAF TAF ELLX
Valide du 19 à 06h jusqu'au 20 à 12h UTC


190500Z 1906/2012 28010KT 9999 FEW025 SCT035
BECMG 1920/1923 3000 BR
PROB40
TEMPO 2002/2009 1800 -FZDZ SCT001 BKN002
BECMG 2009/2011 -RADZ BKN005
TEMPO 2011/2012 1500 RADZ BKN001
ATIS : +352 4798 27300
Météo : +352 4798 27010 / 27050
Pas de NOTAMs connus pour ce terrain.



MET'MAP, la Météo Aéronautique d'un coup d'oeil ! - Copyright ORBIFLY Décembre 2007 - Disclaimer

ORBIFLY MET'MAP TEAM :

Programmation & Développement : Alexandra Zaïnal
Conception & Développement : Baudouin d'Aumeries
Co-Programmation & Développement : Marc-Olivier Méhu
Soutien technique & logistique : Manuel Goepfert

Contact : metmap@orbifly.com




SOURCES & CREDITS :

   NOAA